sensor_id;sensor_type;location;lat;lon;timestamp;P1;durP1;ratioP1;P2;durP2;ratioP2
8060;SDS011;4073;42.626;25.386;2022-10-14T00:01:35;4.30;;;3.07;;
8060;SDS011;4073;42.626;25.386;2022-10-14T00:04:00;4.57;;;2.80;;
8060;SDS011;4073;42.626;25.386;2022-10-14T00:06:27;6.80;;;3.47;;
8060;SDS011;4073;42.626;25.386;2022-10-14T00:08:54;3.00;;;2.43;;
8060;SDS011;4073;42.626;25.386;2022-10-14T00:11:25;5.83;;;3.13;;
8060;SDS011;4073;42.626;25.386;2022-10-14T00:13:53;3.43;;;3.03;;
8060;SDS011;4073;42.626;25.386;2022-10-14T00:16:26;3.50;;;3.17;;
8060;SDS011;4073;42.626;25.386;2022-10-14T00:18:53;5.10;;;3.00;;
8060;SDS011;4073;42.626;25.386;2022-10-14T00:21:19;4.43;;;3.37;;
8060;SDS011;4073;42.626;25.386;2022-10-14T00:23:45;2.83;;;2.60;;
8060;SDS011;4073;42.626;25.386;2022-10-14T00:26:18;3.57;;;2.80;;
8060;SDS011;4073;42.626;25.386;2022-10-14T00:29:04;4.10;;;3.17;;
8060;SDS011;4073;42.626;25.386;2022-10-14T00:31:32;2.73;;;2.47;;
8060;SDS011;4073;42.626;25.386;2022-10-14T00:33:58;5.07;;;2.60;;
8060;SDS011;4073;42.626;25.386;2022-10-14T00:36:24;4.63;;;2.73;;
8060;SDS011;4073;42.626;25.386;2022-10-14T00:38:50;4.57;;;3.00;;
8060;SDS011;4073;42.626;25.386;2022-10-14T00:41:19;3.80;;;3.00;;
8060;SDS011;4073;42.626;25.386;2022-10-14T00:46:34;7.40;;;3.57;;
8060;SDS011;4073;42.626;25.386;2022-10-14T00:49:04;4.23;;;3.07;;
8060;SDS011;4073;42.626;25.386;2022-10-14T00:51:34;4.77;;;3.33;;
8060;SDS011;4073;42.626;25.386;2022-10-14T00:54:01;4.60;;;2.83;;
8060;SDS011;4073;42.626;25.386;2022-10-14T00:56:27;4.87;;;3.20;;
8060;SDS011;4073;42.626;25.386;2022-10-14T00:58:54;6.87;;;3.30;;
8060;SDS011;4073;42.626;25.386;2022-10-14T01:01:20;6.40;;;3.00;;
8060;SDS011;4073;42.626;25.386;2022-10-14T01:03:46;7.90;;;3.87;;
8060;SDS011;4073;42.626;25.386;2022-10-14T01:09:17;5.53;;;3.33;;
8060;SDS011;4073;42.626;25.386;2022-10-14T01:23:21;5.73;;;3.00;;
8060;SDS011;4073;42.626;25.386;2022-10-14T01:31:04;4.47;;;2.60;;
8060;SDS011;4073;42.626;25.386;2022-10-14T01:33:36;3.07;;;2.50;;
8060;SDS011;4073;42.626;25.386;2022-10-14T01:36:28;3.80;;;2.60;;
8060;SDS011;4073;42.626;25.386;2022-10-14T01:41:49;3.67;;;2.50;;
8060;SDS011;4073;42.626;25.386;2022-10-14T01:44:28;5.47;;;2.37;;
8060;SDS011;4073;42.626;25.386;2022-10-14T01:46:54;3.00;;;2.70;;
8060;SDS011;4073;42.626;25.386;2022-10-14T01:50:04;3.33;;;2.40;;
8060;SDS011;4073;42.626;25.386;2022-10-14T01:52:15;3.10;;;2.73;;
8060;SDS011;4073;42.626;25.386;2022-10-14T01:54:46;4.33;;;2.63;;
8060;SDS011;4073;42.626;25.386;2022-10-14T01:57:19;4.80;;;2.43;;
8060;SDS011;4073;42.626;25.386;2022-10-14T01:59:49;3.23;;;2.67;;
8060;SDS011;4073;42.626;25.386;2022-10-14T02:02:17;3.53;;;2.53;;
8060;SDS011;4073;42.626;25.386;2022-10-14T02:04:43;3.50;;;2.50;;
8060;SDS011;4073;42.626;25.386;2022-10-14T02:12:35;3.33;;;1.90;;
8060;SDS011;4073;42.626;25.386;2022-10-14T02:15:15;5.83;;;3.13;;
8060;SDS011;4073;42.626;25.386;2022-10-14T02:17:52;3.03;;;2.37;;
8060;SDS011;4073;42.626;25.386;2022-10-14T02:20:40;3.53;;;2.60;;
8060;SDS011;4073;42.626;25.386;2022-10-14T02:23:16;3.40;;;2.50;;
8060;SDS011;4073;42.626;25.386;2022-10-14T02:25:45;2.53;;;2.30;;
8060;SDS011;4073;42.626;25.386;2022-10-14T02:28:14;2.80;;;2.00;;
8060;SDS011;4073;42.626;25.386;2022-10-14T02:30:44;2.90;;;1.90;;
8060;SDS011;4073;42.626;25.386;2022-10-14T02:33:13;2.47;;;1.87;;
8060;SDS011;4073;42.626;25.386;2022-10-14T02:35:40;3.53;;;1.90;;
8060;SDS011;4073;42.626;25.386;2022-10-14T02:38:07;1.70;;;1.60;;
8060;SDS011;4073;42.626;25.386;2022-10-14T02:40:37;2.40;;;2.13;;
8060;SDS011;4073;42.626;25.386;2022-10-14T02:43:05;3.13;;;2.63;;
8060;SDS011;4073;42.626;25.386;2022-10-14T02:45:34;3.03;;;2.20;;
8060;SDS011;4073;42.626;25.386;2022-10-14T02:48:00;3.40;;;2.23;;
8060;SDS011;4073;42.626;25.386;2022-10-14T02:50:26;4.57;;;2.03;;
8060;SDS011;4073;42.626;25.386;2022-10-14T02:52:51;2.80;;;2.13;;
8060;SDS011;4073;42.626;25.386;2022-10-14T02:55:17;1.90;;;1.70;;
8060;SDS011;4073;42.626;25.386;2022-10-14T02:57:42;3.63;;;2.00;;
8060;SDS011;4073;42.626;25.386;2022-10-14T03:00:08;2.93;;;2.20;;
8060;SDS011;4073;42.626;25.386;2022-10-14T03:02:35;5.10;;;2.40;;
8060;SDS011;4073;42.626;25.386;2022-10-14T03:05:00;3.50;;;2.70;;
8060;SDS011;4073;42.626;25.386;2022-10-14T03:07:26;4.13;;;2.13;;
8060;SDS011;4073;42.626;25.386;2022-10-14T03:09:51;2.60;;;2.40;;
8060;SDS011;4073;42.626;25.386;2022-10-14T03:12:17;3.53;;;2.87;;
8060;SDS011;4073;42.626;25.386;2022-10-14T03:14:42;4.37;;;2.60;;
8060;SDS011;4073;42.626;25.386;2022-10-14T03:17:08;6.10;;;2.80;;
8060;SDS011;4073;42.626;25.386;2022-10-14T03:19:33;4.77;;;2.70;;
8060;SDS011;4073;42.626;25.386;2022-10-14T03:21:59;4.27;;;2.43;;
8060;SDS011;4073;42.626;25.386;2022-10-14T03:24:25;3.10;;;2.40;;
8060;SDS011;4073;42.626;25.386;2022-10-14T03:26:50;4.83;;;2.60;;
8060;SDS011;4073;42.626;25.386;2022-10-14T03:29:16;4.10;;;3.07;;
8060;SDS011;4073;42.626;25.386;2022-10-14T03:31:41;4.70;;;3.47;;
8060;SDS011;4073;42.626;25.386;2022-10-14T03:34:07;4.27;;;2.90;;
8060;SDS011;4073;42.626;25.386;2022-10-14T03:36:32;6.73;;;3.50;;
8060;SDS011;4073;42.626;25.386;2022-10-14T03:38:58;4.93;;;2.90;;
8060;SDS011;4073;42.626;25.386;2022-10-14T03:41:24;4.27;;;3.50;;
8060;SDS011;4073;42.626;25.386;2022-10-14T03:43:50;4.17;;;3.07;;
8060;SDS011;4073;42.626;25.386;2022-10-14T03:46:15;5.30;;;3.00;;
8060;SDS011;4073;42.626;25.386;2022-10-14T03:48:40;4.67;;;2.77;;
8060;SDS011;4073;42.626;25.386;2022-10-14T03:51:06;13.63;;;6.30;;
8060;SDS011;4073;42.626;25.386;2022-10-14T03:53:32;9.43;;;4.80;;
8060;SDS011;4073;42.626;25.386;2022-10-14T03:55:57;9.20;;;4.00;;
8060;SDS011;4073;42.626;25.386;2022-10-14T03:58:23;4.40;;;3.23;;
8060;SDS011;4073;42.626;25.386;2022-10-14T04:00:48;6.57;;;3.20;;
8060;SDS011;4073;42.626;25.386;2022-10-14T04:03:14;5.57;;;4.20;;
8060;SDS011;4073;42.626;25.386;2022-10-14T04:05:39;8.87;;;5.00;;
8060;SDS011;4073;42.626;25.386;2022-10-14T04:08:05;11.13;;;4.10;;
8060;SDS011;4073;42.626;25.386;2022-10-14T04:10:30;5.47;;;3.93;;
8060;SDS011;4073;42.626;25.386;2022-10-14T04:12:56;6.47;;;3.73;;
8060;SDS011;4073;42.626;25.386;2022-10-14T04:15:21;8.17;;;4.90;;
8060;SDS011;4073;42.626;25.386;2022-10-14T04:17:48;6.67;;;4.37;;
8060;SDS011;4073;42.626;25.386;2022-10-14T04:20:14;13.47;;;3.80;;
8060;SDS011;4073;42.626;25.386;2022-10-14T04:22:40;6.23;;;3.83;;
8060;SDS011;4073;42.626;25.386;2022-10-14T04:25:05;7.47;;;3.03;;
8060;SDS011;4073;42.626;25.386;2022-10-14T04:27:31;4.10;;;3.30;;
8060;SDS011;4073;42.626;25.386;2022-10-14T04:29:57;9.33;;;4.20;;
8060;SDS011;4073;42.626;25.386;2022-10-14T04:32:23;7.47;;;3.93;;
8060;SDS011;4073;42.626;25.386;2022-10-14T04:34:48;8.23;;;4.30;;
8060;SDS011;4073;42.626;25.386;2022-10-14T04:37:14;7.17;;;4.23;;
8060;SDS011;4073;42.626;25.386;2022-10-14T04:39:40;6.20;;;4.97;;
8060;SDS011;4073;42.626;25.386;2022-10-14T04:42:05;11.40;;;5.60;;
8060;SDS011;4073;42.626;25.386;2022-10-14T04:44:30;15.20;;;6.07;;
8060;SDS011;4073;42.626;25.386;2022-10-14T04:46:56;9.33;;;5.93;;
8060;SDS011;4073;42.626;25.386;2022-10-14T04:49:21;16.70;;;8.33;;
8060;SDS011;4073;42.626;25.386;2022-10-14T04:51:47;21.00;;;10.03;;
8060;SDS011;4073;42.626;25.386;2022-10-14T04:54:12;10.73;;;7.10;;
8060;SDS011;4073;42.626;25.386;2022-10-14T04:56:38;15.93;;;6.40;;
8060;SDS011;4073;42.626;25.386;2022-10-14T04:59:03;11.90;;;6.40;;
8060;SDS011;4073;42.626;25.386;2022-10-14T05:01:30;11.93;;;6.20;;
8060;SDS011;4073;42.626;25.386;2022-10-14T05:03:55;9.13;;;5.47;;
8060;SDS011;4073;42.626;25.386;2022-10-14T05:06:20;10.90;;;4.13;;
8060;SDS011;4073;42.626;25.386;2022-10-14T05:08:46;16.80;;;6.07;;
8060;SDS011;4073;42.626;25.386;2022-10-14T05:11:11;9.00;;;4.60;;
8060;SDS011;4073;42.626;25.386;2022-10-14T05:13:37;13.90;;;5.10;;
8060;SDS011;4073;42.626;25.386;2022-10-14T05:16:03;4.90;;;4.00;;
8060;SDS011;4073;42.626;25.386;2022-10-14T05:18:28;6.40;;;3.73;;
8060;SDS011;4073;42.626;25.386;2022-10-14T05:20:56;6.67;;;3.17;;
8060;SDS011;4073;42.626;25.386;2022-10-14T05:23:23;6.83;;;3.60;;
8060;SDS011;4073;42.626;25.386;2022-10-14T05:25:48;8.90;;;2.87;;
8060;SDS011;4073;42.626;25.386;2022-10-14T05:28:15;6.87;;;3.63;;
8060;SDS011;4073;42.626;25.386;2022-10-14T05:30:41;5.00;;;2.73;;
8060;SDS011;4073;42.626;25.386;2022-10-14T05:33:07;3.47;;;2.87;;
8060;SDS011;4073;42.626;25.386;2022-10-14T05:35:32;3.83;;;2.90;;
8060;SDS011;4073;42.626;25.386;2022-10-14T05:37:58;4.50;;;2.73;;
8060;SDS011;4073;42.626;25.386;2022-10-14T05:40:23;5.27;;;2.63;;
8060;SDS011;4073;42.626;25.386;2022-10-14T05:42:49;5.50;;;3.33;;
8060;SDS011;4073;42.626;25.386;2022-10-14T05:45:14;7.00;;;3.50;;
8060;SDS011;4073;42.626;25.386;2022-10-14T05:47:43;6.57;;;3.47;;
8060;SDS011;4073;42.626;25.386;2022-10-14T05:50:09;7.70;;;3.87;;
8060;SDS011;4073;42.626;25.386;2022-10-14T05:52:35;6.60;;;3.83;;
8060;SDS011;4073;42.626;25.386;2022-10-14T05:55:01;7.53;;;3.40;;
8060;SDS011;4073;42.626;25.386;2022-10-14T05:57:26;7.60;;;3.30;;
8060;SDS011;4073;42.626;25.386;2022-10-14T05:59:52;4.87;;;2.97;;
8060;SDS011;4073;42.626;25.386;2022-10-14T06:02:18;6.53;;;3.23;;
8060;SDS011;4073;42.626;25.386;2022-10-14T06:04:44;6.53;;;5.43;;
8060;SDS011;4073;42.626;25.386;2022-10-14T06:07:09;4.53;;;2.77;;
8060;SDS011;4073;42.626;25.386;2022-10-14T06:09:35;5.40;;;2.73;;
8060;SDS011;4073;42.626;25.386;2022-10-14T06:12:02;3.40;;;2.47;;
8060;SDS011;4073;42.626;25.386;2022-10-14T06:14:28;3.60;;;2.40;;
8060;SDS011;4073;42.626;25.386;2022-10-14T06:16:53;4.93;;;2.70;;
8060;SDS011;4073;42.626;25.386;2022-10-14T06:19:19;7.03;;;2.80;;
8060;SDS011;4073;42.626;25.386;2022-10-14T06:21:45;6.37;;;3.17;;
8060;SDS011;4073;42.626;25.386;2022-10-14T06:24:10;5.70;;;2.20;;
8060;SDS011;4073;42.626;25.386;2022-10-14T06:26:36;4.10;;;2.40;;
8060;SDS011;4073;42.626;25.386;2022-10-14T06:29:01;3.57;;;2.70;;
8060;SDS011;4073;42.626;25.386;2022-10-14T06:31:27;3.70;;;2.60;;
8060;SDS011;4073;42.626;25.386;2022-10-14T06:33:52;2.53;;;1.90;;
8060;SDS011;4073;42.626;25.386;2022-10-14T06:36:18;3.70;;;2.63;;
8060;SDS011;4073;42.626;25.386;2022-10-14T06:38:43;3.90;;;2.77;;
8060;SDS011;4073;42.626;25.386;2022-10-14T06:41:09;4.87;;;2.30;;
8060;SDS011;4073;42.626;25.386;2022-10-14T06:43:35;4.50;;;2.60;;
8060;SDS011;4073;42.626;25.386;2022-10-14T06:46:02;4.70;;;2.77;;
8060;SDS011;4073;42.626;25.386;2022-10-14T06:48:28;6.83;;;4.17;;
8060;SDS011;4073;42.626;25.386;2022-10-14T06:50:54;4.33;;;2.77;;
8060;SDS011;4073;42.626;25.386;2022-10-14T06:53:22;4.67;;;2.80;;
8060;SDS011;4073;42.626;25.386;2022-10-14T06:55:47;16.80;;;8.37;;
8060;SDS011;4073;42.626;25.386;2022-10-14T06:58:13;29.30;;;12.90;;
8060;SDS011;4073;42.626;25.386;2022-10-14T07:00:38;22.50;;;7.90;;
8060;SDS011;4073;42.626;25.386;2022-10-14T07:03:03;27.33;;;13.80;;
8060;SDS011;4073;42.626;25.386;2022-10-14T07:05:29;5.80;;;2.50;;
8060;SDS011;4073;42.626;25.386;2022-10-14T07:07:56;3.50;;;2.77;;
8060;SDS011;4073;42.626;25.386;2022-10-14T07:10:22;2.77;;;2.37;;
8060;SDS011;4073;42.626;25.386;2022-10-14T07:12:48;3.87;;;1.97;;
8060;SDS011;4073;42.626;25.386;2022-10-14T07:15:18;9.13;;;5.30;;
8060;SDS011;4073;42.626;25.386;2022-10-14T07:17:43;12.00;;;6.60;;
8060;SDS011;4073;42.626;25.386;2022-10-14T07:20:09;3.33;;;2.00;;
8060;SDS011;4073;42.626;25.386;2022-10-14T07:22:36;4.77;;;2.87;;
8060;SDS011;4073;42.626;25.386;2022-10-14T07:25:02;29.73;;;16.53;;
8060;SDS011;4073;42.626;25.386;2022-10-14T07:27:28;20.20;;;11.43;;
8060;SDS011;4073;42.626;25.386;2022-10-14T07:29:54;8.27;;;3.10;;
8060;SDS011;4073;42.626;25.386;2022-10-14T07:32:19;5.53;;;3.00;;
8060;SDS011;4073;42.626;25.386;2022-10-14T07:34:45;2.23;;;1.77;;
8060;SDS011;4073;42.626;25.386;2022-10-14T07:37:10;3.43;;;1.37;;
8060;SDS011;4073;42.626;25.386;2022-10-14T07:39:36;2.27;;;1.23;;
8060;SDS011;4073;42.626;25.386;2022-10-14T07:42:01;3.33;;;1.70;;
8060;SDS011;4073;42.626;25.386;2022-10-14T07:44:27;3.40;;;1.87;;
8060;SDS011;4073;42.626;25.386;2022-10-14T07:46:52;3.63;;;1.50;;
8060;SDS011;4073;42.626;25.386;2022-10-14T07:49:19;4.17;;;2.87;;
8060;SDS011;4073;42.626;25.386;2022-10-14T07:51:45;5.17;;;3.40;;
8060;SDS011;4073;42.626;25.386;2022-10-14T07:54:13;5.00;;;2.73;;
8060;SDS011;4073;42.626;25.386;2022-10-14T07:56:43;5.23;;;2.93;;
8060;SDS011;4073;42.626;25.386;2022-10-14T07:59:09;5.23;;;2.47;;
8060;SDS011;4073;42.626;25.386;2022-10-14T08:01:36;5.47;;;2.27;;
8060;SDS011;4073;42.626;25.386;2022-10-14T08:04:02;3.13;;;1.73;;
8060;SDS011;4073;42.626;25.386;2022-10-14T08:06:28;2.63;;;1.90;;
8060;SDS011;4073;42.626;25.386;2022-10-14T08:08:53;4.43;;;1.97;;
8060;SDS011;4073;42.626;25.386;2022-10-14T08:11:23;4.77;;;2.30;;
8060;SDS011;4073;42.626;25.386;2022-10-14T08:13:52;3.67;;;1.70;;
8060;SDS011;4073;42.626;25.386;2022-10-14T08:18:44;3.23;;;2.30;;
8060;SDS011;4073;42.626;25.386;2022-10-14T08:21:10;2.53;;;1.53;;
8060;SDS011;4073;42.626;25.386;2022-10-14T08:23:36;4.70;;;1.90;;
8060;SDS011;4073;42.626;25.386;2022-10-14T08:26:02;5.00;;;1.83;;
8060;SDS011;4073;42.626;25.386;2022-10-14T08:28:28;2.13;;;1.87;;
8060;SDS011;4073;42.626;25.386;2022-10-14T08:30:54;5.97;;;2.27;;
8060;SDS011;4073;42.626;25.386;2022-10-14T08:33:19;2.70;;;1.73;;
8060;SDS011;4073;42.626;25.386;2022-10-14T08:35:45;3.23;;;1.77;;
8060;SDS011;4073;42.626;25.386;2022-10-14T08:38:11;1.87;;;1.50;;
8060;SDS011;4073;42.626;25.386;2022-10-14T08:43:26;1.47;;;1.20;;
8060;SDS011;4073;42.626;25.386;2022-10-14T08:45:57;3.33;;;1.40;;
8060;SDS011;4073;42.626;25.386;2022-10-14T08:48:31;3.40;;;1.50;;
8060;SDS011;4073;42.626;25.386;2022-10-14T08:51:04;2.33;;;1.20;;
8060;SDS011;4073;42.626;25.386;2022-10-14T08:53:39;1.50;;;1.20;;
8060;SDS011;4073;42.626;25.386;2022-10-14T08:56:10;5.63;;;1.50;;
8060;SDS011;4073;42.626;25.386;2022-10-14T08:58:36;3.17;;;1.53;;
8060;SDS011;4073;42.626;25.386;2022-10-14T09:01:24;3.10;;;1.70;;
8060;SDS011;4073;42.626;25.386;2022-10-14T09:03:53;6.23;;;1.53;;
8060;SDS011;4073;42.626;25.386;2022-10-14T09:06:26;2.83;;;1.30;;
8060;SDS011;4073;42.626;25.386;2022-10-14T09:08:59;2.57;;;1.47;;
8060;SDS011;4073;42.626;25.386;2022-10-14T09:11:33;5.83;;;1.40;;
8060;SDS011;4073;42.626;25.386;2022-10-14T09:14:05;3.70;;;1.57;;
8060;SDS011;4073;42.626;25.386;2022-10-14T09:16:33;1.70;;;1.20;;
8060;SDS011;4073;42.626;25.386;2022-10-14T09:19:02;2.23;;;1.60;;
8060;SDS011;4073;42.626;25.386;2022-10-14T09:21:49;1.53;;;1.20;;
8060;SDS011;4073;42.626;25.386;2022-10-14T09:24:31;2.77;;;1.20;;
8060;SDS011;4073;42.626;25.386;2022-10-14T09:27:03;2.77;;;1.00;;
8060;SDS011;4073;42.626;25.386;2022-10-14T09:29:34;2.17;;;1.23;;
8060;SDS011;4073;42.626;25.386;2022-10-14T09:32:07;2.03;;;1.20;;
8060;SDS011;4073;42.626;25.386;2022-10-14T09:34:37;3.37;;;1.47;;
8060;SDS011;4073;42.626;25.386;2022-10-14T09:37:11;3.90;;;1.40;;
8060;SDS011;4073;42.626;25.386;2022-10-14T09:39:42;8.63;;;1.53;;
8060;SDS011;4073;42.626;25.386;2022-10-14T09:42:16;3.27;;;1.57;;
8060;SDS011;4073;42.626;25.386;2022-10-14T09:44:44;1.57;;;1.47;;
8060;SDS011;4073;42.626;25.386;2022-10-14T09:47:25;1.30;;;0.93;;
8060;SDS011;4073;42.626;25.386;2022-10-14T09:49:53;1.10;;;1.00;;
8060;SDS011;4073;42.626;25.386;2022-10-14T09:52:23;1.40;;;1.20;;
8060;SDS011;4073;42.626;25.386;2022-10-14T09:54:53;3.53;;;1.17;;
8060;SDS011;4073;42.626;25.386;2022-10-14T09:57:20;1.80;;;1.13;;
8060;SDS011;4073;42.626;25.386;2022-10-14T09:59:50;1.63;;;1.10;;
8060;SDS011;4073;42.626;25.386;2022-10-14T10:02:41;1.50;;;1.20;;
8060;SDS011;4073;42.626;25.386;2022-10-14T10:05:26;1.70;;;1.30;;
8060;SDS011;4073;42.626;25.386;2022-10-14T10:10:38;2.40;;;1.40;;
8060;SDS011;4073;42.626;25.386;2022-10-14T10:13:05;2.37;;;1.40;;
8060;SDS011;4073;42.626;25.386;2022-10-14T10:15:55;3.07;;;1.20;;
8060;SDS011;4073;42.626;25.386;2022-10-14T10:18:25;1.20;;;1.10;;
8060;SDS011;4073;42.626;25.386;2022-10-14T10:21:01;2.83;;;1.20;;
8060;SDS011;4073;42.626;25.386;2022-10-14T10:23:31;3.97;;;1.30;;
8060;SDS011;4073;42.626;25.386;2022-10-14T10:26:19;2.07;;;1.40;;
8060;SDS011;4073;42.626;25.386;2022-10-14T10:28:51;1.90;;;1.70;;
8060;SDS011;4073;42.626;25.386;2022-10-14T10:36:35;3.13;;;1.73;;
8060;SDS011;4073;42.626;25.386;2022-10-14T10:39:15;5.47;;;2.30;;
8060;SDS011;4073;42.626;25.386;2022-10-14T10:47:34;2.70;;;1.43;;
8060;SDS011;4073;42.626;25.386;2022-10-14T10:53:25;2.07;;;1.60;;
8060;SDS011;4073;42.626;25.386;2022-10-14T11:01:43;3.63;;;2.07;;
8060;SDS011;4073;42.626;25.386;2022-10-14T11:07:01;3.27;;;1.40;;
8060;SDS011;4073;42.626;25.386;2022-10-14T11:17:57;2.97;;;1.63;;
8060;SDS011;4073;42.626;25.386;2022-10-14T11:25:40;4.63;;;1.80;;
8060;SDS011;4073;42.626;25.386;2022-10-14T11:42:19;4.50;;;2.40;;
8060;SDS011;4073;42.626;25.386;2022-10-14T11:44:37;2.37;;;1.97;;
8060;SDS011;4073;42.626;25.386;2022-10-14T11:47:09;4.53;;;2.10;;
8060;SDS011;4073;42.626;25.386;2022-10-14T11:50:28;6.10;;;2.43;;
8060;SDS011;4073;42.626;25.386;2022-10-14T11:52:49;2.77;;;2.20;;
8060;SDS011;4073;42.626;25.386;2022-10-14T11:55:44;2.73;;;2.10;;
8060;SDS011;4073;42.626;25.386;2022-10-14T11:58:17;2.00;;;1.80;;
8060;SDS011;4073;42.626;25.386;2022-10-14T12:00:53;4.30;;;1.97;;
8060;SDS011;4073;42.626;25.386;2022-10-14T12:06:47;4.50;;;2.83;;
8060;SDS011;4073;42.626;25.386;2022-10-14T12:08:56;2.73;;;2.43;;
8060;SDS011;4073;42.626;25.386;2022-10-14T12:14:03;2.67;;;2.23;;
8060;SDS011;4073;42.626;25.386;2022-10-14T12:16:35;4.43;;;3.10;;
8060;SDS011;4073;42.626;25.386;2022-10-14T12:19:07;5.83;;;2.37;;
8060;SDS011;4073;42.626;25.386;2022-10-14T12:21:37;2.90;;;2.60;;
8060;SDS011;4073;42.626;25.386;2022-10-14T12:24:15;3.00;;;2.70;;
8060;SDS011;4073;42.626;25.386;2022-10-14T12:26:57;4.07;;;2.63;;
8060;SDS011;4073;42.626;25.386;2022-10-14T12:29:30;2.97;;;2.40;;
8060;SDS011;4073;42.626;25.386;2022-10-14T12:36:59;3.87;;;2.83;;
8060;SDS011;4073;42.626;25.386;2022-10-14T12:39:32;6.30;;;3.00;;
8060;SDS011;4073;42.626;25.386;2022-10-14T12:42:11;4.57;;;2.60;;
8060;SDS011;4073;42.626;25.386;2022-10-14T12:44:48;3.53;;;2.97;;
8060;SDS011;4073;42.626;25.386;2022-10-14T12:47:24;5.47;;;3.23;;
8060;SDS011;4073;42.626;25.386;2022-10-14T12:50:23;4.10;;;2.90;;
8060;SDS011;4073;42.626;25.386;2022-10-14T12:52:58;5.30;;;3.63;;
8060;SDS011;4073;42.626;25.386;2022-10-14T12:55:27;4.67;;;3.00;;
8060;SDS011;4073;42.626;25.386;2022-10-14T12:57:59;5.43;;;3.30;;
8060;SDS011;4073;42.626;25.386;2022-10-14T13:00:36;6.67;;;3.77;;
8060;SDS011;4073;42.626;25.386;2022-10-14T13:03:05;4.03;;;3.27;;
8060;SDS011;4073;42.626;25.386;2022-10-14T13:05:43;10.20;;;5.70;;
8060;SDS011;4073;42.626;25.386;2022-10-14T13:13:47;4.30;;;3.27;;
8060;SDS011;4073;42.626;25.386;2022-10-14T13:16:07;6.03;;;3.20;;
8060;SDS011;4073;42.626;25.386;2022-10-14T13:26:40;6.67;;;3.57;;
8060;SDS011;4073;42.626;25.386;2022-10-14T13:29:16;5.50;;;4.10;;
8060;SDS011;4073;42.626;25.386;2022-10-14T13:32:08;10.50;;;4.40;;
8060;SDS011;4073;42.626;25.386;2022-10-14T13:37:36;7.83;;;4.97;;
8060;SDS011;4073;42.626;25.386;2022-10-14T13:40:26;9.50;;;4.30;;
8060;SDS011;4073;42.626;25.386;2022-10-14T13:42:59;5.87;;;4.67;;
8060;SDS011;4073;42.626;25.386;2022-10-14T13:45:42;7.37;;;4.50;;
8060;SDS011;4073;42.626;25.386;2022-10-14T13:48:12;6.70;;;5.20;;
8060;SDS011;4073;42.626;25.386;2022-10-14T13:50:41;7.33;;;4.67;;
8060;SDS011;4073;42.626;25.386;2022-10-14T13:53:14;6.93;;;4.87;;
8060;SDS011;4073;42.626;25.386;2022-10-14T13:55:46;6.23;;;4.90;;
8060;SDS011;4073;42.626;25.386;2022-10-14T13:58:17;13.53;;;5.33;;
8060;SDS011;4073;42.626;25.386;2022-10-14T14:03:16;8.80;;;5.93;;
8060;SDS011;4073;42.626;25.386;2022-10-14T14:05:45;11.83;;;7.30;;
8060;SDS011;4073;42.626;25.386;2022-10-14T14:08:14;13.57;;;7.17;;
8060;SDS011;4073;42.626;25.386;2022-10-14T14:10:50;13.97;;;8.00;;
8060;SDS011;4073;42.626;25.386;2022-10-14T14:13:27;15.20;;;10.23;;
8060;SDS011;4073;42.626;25.386;2022-10-14T14:15:56;10.67;;;7.67;;
8060;SDS011;4073;42.626;25.386;2022-10-14T14:18:35;9.27;;;7.53;;
8060;SDS011;4073;42.626;25.386;2022-10-14T14:21:08;11.73;;;9.23;;
8060;SDS011;4073;42.626;25.386;2022-10-14T14:23:46;11.10;;;8.13;;
8060;SDS011;4073;42.626;25.386;2022-10-14T14:26:16;11.67;;;8.67;;
8060;SDS011;4073;42.626;25.386;2022-10-14T14:28:43;22.13;;;12.87;;
8060;SDS011;4073;42.626;25.386;2022-10-14T14:31:13;15.23;;;10.27;;
8060;SDS011;4073;42.626;25.386;2022-10-14T14:33:42;10.73;;;7.80;;
8060;SDS011;4073;42.626;25.386;2022-10-14T14:36:11;11.13;;;8.03;;
8060;SDS011;4073;42.626;25.386;2022-10-14T14:38:43;11.27;;;6.07;;
8060;SDS011;4073;42.626;25.386;2022-10-14T14:43:53;10.93;;;8.40;;
8060;SDS011;4073;42.626;25.386;2022-10-14T14:46:25;12.27;;;7.43;;
8060;SDS011;4073;42.626;25.386;2022-10-14T14:48:52;9.90;;;7.73;;
8060;SDS011;4073;42.626;25.386;2022-10-14T14:51:20;14.17;;;6.67;;
8060;SDS011;4073;42.626;25.386;2022-10-14T14:53:49;9.30;;;6.30;;
8060;SDS011;4073;42.626;25.386;2022-10-14T14:56:18;13.97;;;7.70;;
8060;SDS011;4073;42.626;25.386;2022-10-14T14:59:05;9.27;;;7.17;;
8060;SDS011;4073;42.626;25.386;2022-10-14T15:01:40;8.80;;;7.60;;
8060;SDS011;4073;42.626;25.386;2022-10-14T15:04:14;9.07;;;5.70;;
8060;SDS011;4073;42.626;25.386;2022-10-14T15:06:47;9.90;;;5.87;;
8060;SDS011;4073;42.626;25.386;2022-10-14T15:09:23;7.93;;;6.90;;
8060;SDS011;4073;42.626;25.386;2022-10-14T15:12:03;9.97;;;7.43;;
8060;SDS011;4073;42.626;25.386;2022-10-14T15:14:44;8.30;;;6.97;;
8060;SDS011;4073;42.626;25.386;2022-10-14T15:17:22;5.97;;;5.37;;
8060;SDS011;4073;42.626;25.386;2022-10-14T15:22:37;9.20;;;6.73;;
8060;SDS011;4073;42.626;25.386;2022-10-14T15:30:23;7.83;;;6.17;;
8060;SDS011;4073;42.626;25.386;2022-10-14T15:32:56;6.87;;;6.00;;
8060;SDS011;4073;42.626;25.386;2022-10-14T15:35:27;10.20;;;6.80;;
8060;SDS011;4073;42.626;25.386;2022-10-14T15:37:53;10.40;;;7.53;;
8060;SDS011;4073;42.626;25.386;2022-10-14T15:40:20;13.93;;;8.20;;
8060;SDS011;4073;42.626;25.386;2022-10-14T15:42:54;10.37;;;7.63;;
8060;SDS011;4073;42.626;25.386;2022-10-14T15:45:20;10.33;;;6.80;;
8060;SDS011;4073;42.626;25.386;2022-10-14T15:47:50;9.73;;;6.50;;
8060;SDS011;4073;42.626;25.386;2022-10-14T15:50:18;12.90;;;8.60;;
8060;SDS011;4073;42.626;25.386;2022-10-14T15:52:45;12.37;;;8.33;;
8060;SDS011;4073;42.626;25.386;2022-10-14T15:55:21;13.73;;;7.83;;
8060;SDS011;4073;42.626;25.386;2022-10-14T15:57:48;12.33;;;8.83;;
8060;SDS011;4073;42.626;25.386;2022-10-14T16:00:15;16.70;;;9.07;;
8060;SDS011;4073;42.626;25.386;2022-10-14T16:02:43;16.97;;;8.97;;
8060;SDS011;4073;42.626;25.386;2022-10-14T16:05:10;10.60;;;9.13;;
8060;SDS011;4073;42.626;25.386;2022-10-14T16:07:36;10.87;;;7.93;;
8060;SDS011;4073;42.626;25.386;2022-10-14T16:10:03;10.00;;;7.60;;
8060;SDS011;4073;42.626;25.386;2022-10-14T16:12:31;14.67;;;12.50;;
8060;SDS011;4073;42.626;25.386;2022-10-14T16:14:56;16.67;;;12.10;;
8060;SDS011;4073;42.626;25.386;2022-10-14T16:17:23;15.30;;;11.07;;
8060;SDS011;4073;42.626;25.386;2022-10-14T16:19:48;18.60;;;13.37;;
8060;SDS011;4073;42.626;25.386;2022-10-14T16:22:14;17.03;;;11.00;;
8060;SDS011;4073;42.626;25.386;2022-10-14T16:24:39;14.43;;;10.63;;
8060;SDS011;4073;42.626;25.386;2022-10-14T16:27:05;13.73;;;9.67;;
8060;SDS011;4073;42.626;25.386;2022-10-14T16:29:30;11.57;;;9.20;;
8060;SDS011;4073;42.626;25.386;2022-10-14T16:31:56;7.53;;;6.73;;
8060;SDS011;4073;42.626;25.386;2022-10-14T16:34:22;12.30;;;8.00;;
8060;SDS011;4073;42.626;25.386;2022-10-14T16:36:48;13.27;;;10.63;;
8060;SDS011;4073;42.626;25.386;2022-10-14T16:39:15;11.10;;;6.80;;
8060;SDS011;4073;42.626;25.386;2022-10-14T16:41:41;15.80;;;6.87;;
8060;SDS011;4073;42.626;25.386;2022-10-14T16:44:07;9.20;;;6.53;;
8060;SDS011;4073;42.626;25.386;2022-10-14T16:46:48;7.97;;;6.17;;
8060;SDS011;4073;42.626;25.386;2022-10-14T16:49:33;9.13;;;6.90;;
8060;SDS011;4073;42.626;25.386;2022-10-14T16:51:59;7.53;;;6.83;;
8060;SDS011;4073;42.626;25.386;2022-10-14T16:54:24;10.33;;;7.03;;
8060;SDS011;4073;42.626;25.386;2022-10-14T16:56:51;15.97;;;9.63;;
8060;SDS011;4073;42.626;25.386;2022-10-14T16:59:17;16.13;;;10.90;;
8060;SDS011;4073;42.626;25.386;2022-10-14T17:01:43;10.67;;;8.63;;
8060;SDS011;4073;42.626;25.386;2022-10-14T17:04:09;9.73;;;7.80;;
8060;SDS011;4073;42.626;25.386;2022-10-14T17:06:35;13.83;;;8.00;;
8060;SDS011;4073;42.626;25.386;2022-10-14T17:09:01;8.93;;;7.13;;
8060;SDS011;4073;42.626;25.386;2022-10-14T17:11:27;11.40;;;6.87;;
8060;SDS011;4073;42.626;25.386;2022-10-14T17:13:53;10.30;;;9.30;;
8060;SDS011;4073;42.626;25.386;2022-10-14T17:16:21;9.73;;;8.73;;
8060;SDS011;4073;42.626;25.386;2022-10-14T17:18:47;22.77;;;17.57;;
8060;SDS011;4073;42.626;25.386;2022-10-14T17:21:13;30.03;;;19.33;;